Time;durP1;ratioP1;P1;durP2;ratioP2;P2;SDS_P1;SDS_P2;PMS_P1;PMS_P2;Temp;Humidity;BMP_temperature;BMP_pressure;BME280_temperature;BME280_humidity;BME280_pressure;Samples;Min_cycle;Max_cycle;Signal;HPM_P1;HPM_P2
2021/12/18 00:02:18;;;;;;;34.98;18.48;;;;;;;1.60;100.00;99794.19;1771089;81;21196;-82
2021/12/18 00:05:25;;;;;;;25.75;15.88;;;;;;;1.62;100.00;99793.55;1771103;81;21319;-82
2021/12/18 00:08:30;;;;;;;27.10;15.05;;;;;;;1.65;100.00;99793.80;1771151;81;21692;-82
2021/12/18 00:11:36;;;;;;;21.70;12.85;;;;;;;1.66;100.00;99791.45;1769592;81;21731;-82
2021/12/18 00:14:42;;;;;;;20.00;11.80;;;;;;;1.68;100.00;99797.06;1771007;81;21786;-82
2021/12/18 00:17:46;;;;;;;24.47;12.82;;;;;;;1.69;100.00;99806.85;1770990;81;21307;-82
2021/12/18 00:20:53;;;;;;;21.30;10.75;;;;;;;1.69;100.00;99812.24;1769598;81;21726;-82
2021/12/18 00:23:58;;;;;;;20.45;12.50;;;;;;;1.68;100.00;99805.14;1771008;81;21323;-83
2021/12/18 00:27:04;;;;;;;26.82;15.58;;;;;;;1.70;100.00;99807.23;1771035;81;21232;-83
2021/12/18 00:30:11;;;;;;;26.07;15.03;;;;;;;1.69;100.00;99804.16;1770032;81;21184;-83
2021/12/18 00:33:17;;;;;;;30.50;16.32;;;;;;;1.68;100.00;99801.10;1771540;81;21308;-81
2021/12/18 00:36:22;;;;;;;27.27;15.85;;;;;;;1.66;100.00;99797.70;1776909;81;21280;-83
2021/12/18 00:39:31;;;;;;;26.07;15.20;;;;;;;1.64;100.00;99802.34;1776969;81;21714;-82
2021/12/18 00:45:40;;;;;;;23.65;14.03;;;;;;;1.60;100.00;99798.70;1776661;81;21318;-82
2021/12/18 00:48:46;;;;;;;30.35;13.53;;;;;;;1.59;100.00;99792.45;1776749;81;21200;-82
2021/12/18 00:51:51;;;;;;;21.65;12.73;;;;;;;1.57;100.00;99798.48;1776801;81;21831;-82
2021/12/18 00:54:56;;;;;;;21.97;12.07;;;;;;;1.56;100.00;99799.48;1776680;81;21822;-82
2021/12/18 00:58:01;;;;;;;19.82;11.45;;;;;;;1.56;100.00;99802.17;1776755;81;21314;-82
2021/12/18 01:01:09;;;;;;;18.37;10.90;;;;;;;1.55;100.00;99799.09;1776702;81;21786;-82
2021/12/18 01:04:13;;;;;;;18.73;11.70;;;;;;;1.53;100.00;99797.89;1776941;81;21149;-82
2021/12/18 01:07:19;;;;;;;20.72;10.63;;;;;;;1.52;100.00;99791.29;1776768;81;21323;-82
2021/12/18 01:10:40;;;;;;;16.20;10.05;;;;;;;1.52;100.00;99798.88;1776710;81;21284;-83
2021/12/18 01:13:40;;;;;;;14.87;9.85;;;;;;;1.53;100.00;99805.13;1776798;81;21845;-82
2021/12/18 01:16:58;;;;;;;15.88;9.25;;;;;;;1.54;100.00;99801.44;1775727;81;21204;-82
2021/12/18 01:23:14;;;;;;;23.12;11.30;;;;;;;1.56;100.00;99802.17;1775433;81;21588;-83
2021/12/18 01:26:20;;;;;;;23.00;12.30;;;;;;;1.56;100.00;99806.72;1775021;80;21177;-82
2021/12/18 01:29:25;;;;;;;17.80;10.03;;;;;;;1.56;100.00;99810.27;1776753;81;21276;-82
2021/12/18 01:32:31;;;;;;;20.10;12.10;;;;;;;1.55;100.00;99811.22;1776026;81;21236;-81
2021/12/18 01:35:37;;;;;;;17.37;10.05;;;;;;;1.55;100.00;99811.22;1773873;81;21781;-82
2021/12/18 01:38:43;;;;;;;20.08;11.55;;;;;;;1.53;100.00;99815.41;1776708;81;21857;-81
2021/12/18 01:51:58;;;;;;;19.20;11.03;;;;;;;1.58;100.00;99841.13;1776612;81;21203;-82
2021/12/18 01:54:53;;;;;;;16.45;10.80;;;;;;;1.56;100.00;99833.17;1776699;81;21280;-83
2021/12/18 01:57:59;;;;;;;25.72;14.00;;;;;;;1.56;100.00;99837.22;1776878;81;21224;-82
2021/12/18 02:01:05;;;;;;;27.67;16.27;;;;;;;1.57;100.00;99848.85;1776366;81;21304;-82
2021/12/18 02:04:09;;;;;;;33.90;19.73;;;;;;;1.53;100.00;99845.55;1776892;81;21161;-82
2021/12/18 02:07:14;;;;;;;30.72;18.35;;;;;;;1.53;100.00;99845.55;1776377;81;21173;-82
2021/12/18 02:10:22;;;;;;;36.17;20.95;;;;;;;1.50;100.00;99837.22;1776899;81;21790;-82
2021/12/18 02:20:10;;;;;;;40.00;21.23;;;;;;;1.40;100.00;99863.74;1775309;81;21726;-82
2021/12/18 02:23:05;;;;;;;44.35;26.62;;;;;;;1.37;100.00;99855.44;1776827;81;21714;-81
2021/12/18 02:26:10;;;;;;;46.80;27.85;;;;;;;1.37;100.00;99861.32;1776884;81;21308;-82
2021/12/18 02:29:16;;;;;;;62.83;34.70;;;;;;;1.36;100.00;99859.59;1776863;81;21224;-82
2021/12/18 02:32:22;;;;;;;54.98;29.92;;;;;;;1.35;100.00;99864.13;1776724;81;21299;-82
2021/12/18 02:35:40;;;;;;;40.90;23.87;;;;;;;1.34;100.00;99857.03;1775758;80;21897;-82
2021/12/18 02:42:13;;;;;;;36.95;20.05;;;;;;;1.33;100.00;99867.95;1774085;81;21200;-82
2021/12/18 02:45:18;;;;;;;25.82;17.10;;;;;;;1.33;100.00;99857.17;1774077;81;21197;-82
2021/12/18 02:48:23;;;;;;;27.13;15.23;;;;;;;1.32;100.00;99856.32;1772663;81;21177;-82
2021/12/18 02:51:28;;;;;;;20.88;14.28;;;;;;;1.32;100.00;99860.36;1774130;81;21157;-82
2021/12/18 02:54:33;;;;;;;21.07;14.13;;;;;;;1.31;100.00;99865.86;1774121;81;21744;-83
2021/12/18 02:57:38;;;;;;;26.85;15.18;;;;;;;1.32;100.00;99878.34;1774089;81;21352;-81
2021/12/18 03:00:42;;;;;;;28.73;16.02;;;;;;;1.29;100.00;99875.42;1774117;81;21284;-82
2021/12/18 03:03:48;;;;;;;24.47;14.28;;;;;;;1.25;100.00;99886.09;1774102;81;21272;-82
2021/12/18 03:07:00;;;;;;;26.05;14.83;;;;;;;1.22;100.00;99887.22;1774041;81;21299;-82
2021/12/18 03:20:58;;;;;;;26.97;15.93;;;;;;;1.06;100.00;99889.94;1774103;81;21157;-83
2021/12/18 03:26:21;;;;;;;34.33;18.98;;;;;;;0.96;100.00;99897.42;1774049;81;21157;-82
2021/12/18 03:29:25;;;;;;;36.75;19.00;;;;;;;0.91;100.00;99896.95;1774034;81;21161;-82
2021/12/18 03:32:31;;;;;;;34.13;21.55;;;;;;;0.85;100.00;99904.65;1774120;81;21853;-82
2021/12/18 03:35:36;;;;;;;31.90;19.62;;;;;;;0.80;100.00;99913.59;1774035;81;21157;-83
2021/12/18 03:38:42;;;;;;;32.30;18.82;;;;;;;0.74;100.00;99910.41;1715563;83;21292;-82
2021/12/18 03:41:47;;;;;;;34.15;20.85;;;;;;;0.69;100.00;99910.42;1730907;83;21327;-82
2021/12/18 03:44:53;;;;;;;40.95;22.77;;;;;;;0.62;100.00;99908.73;1727690;83;21189;-82
2021/12/18 03:47:59;;;;;;;34.08;20.70;;;;;;;0.57;100.00;99907.39;1727673;83;21681;-83
2021/12/18 03:51:04;;;;;;;41.65;22.65;;;;;;;0.53;100.00;99912.16;1727813;83;21176;-83
2021/12/18 03:54:11;;;;;;;30.97;18.87;;;;;;;0.48;100.00;99915.70;1727831;83;21296;-83
2021/12/18 03:57:16;;;;;;;30.12;18.00;;;;;;;0.43;100.00;99918.75;1727796;83;21325;-81
2021/12/18 04:00:22;;;;;;;27.98;15.72;;;;;;;0.40;100.00;99917.64;1727834;83;21213;-82
2021/12/18 04:03:28;;;;;;;27.02;15.53;;;;;;;0.39;100.00;99911.05;1727726;83;21308;-82
2021/12/18 04:06:37;;;;;;;29.50;15.60;;;;;;;0.38;100.00;99924.98;1726175;83;21781;-82
2021/12/18 04:09:41;;;;;;;27.10;15.23;;;;;;;0.37;100.00;99923.25;1727712;83;21331;-82
2021/12/18 04:12:48;;;;;;;30.23;15.43;;;;;;;0.38;100.00;99924.98;1727768;83;21196;-82
2021/12/18 04:15:54;;;;;;;30.75;15.95;;;;;;;0.41;100.00;99937.33;1727697;83;21192;-81
2021/12/18 04:19:01;;;;;;;26.45;15.38;;;;;;;0.44;100.00;99941.13;1726766;83;21343;-82
2021/12/18 04:22:07;;;;;;;31.57;14.35;;;;;;;0.46;100.00;99947.23;1727776;83;21327;-81
2021/12/18 04:25:12;;;;;;;25.70;15.40;;;;;;;0.48;100.00;99945.30;1727706;83;21745;-82
2021/12/18 04:28:18;;;;;;;23.60;15.05;;;;;;;0.50;100.00;99951.41;1727251;83;21319;-82
2021/12/18 04:31:23;;;;;;;22.75;13.90;;;;;;;0.52;100.00;99950.81;1727588;83;21199;-83
2021/12/18 04:34:29;;;;;;;27.60;14.85;;;;;;;0.55;100.00;99946.52;1726546;83;21721;-80
2021/12/18 04:37:35;;;;;;;25.92;15.80;;;;;;;0.57;100.00;99962.56;1734658;81;21327;-83
2021/12/18 04:40:43;;;;;;;30.43;15.40;;;;;;;0.55;100.00;99966.70;1718179;83;21205;-83
2021/12/18 04:43:48;;;;;;;30.55;16.35;;;;;;;0.53;100.00;99963.78;1749322;82;21307;-83
2021/12/18 04:46:55;;;;;;;29.25;16.25;;;;;;;0.51;100.00;99970.61;1719391;83;21197;-84
2021/12/18 04:50:00;;;;;;;30.05;16.77;;;;;;;0.50;100.00;99970.24;1749245;82;21207;-83
2021/12/18 04:53:05;;;;;;;32.15;17.92;;;;;;;0.50;100.00;99983.20;1718299;83;21307;-83
2021/12/18 04:56:10;;;;;;;31.37;17.50;;;;;;;0.50;100.00;99978.31;1750792;82;21288;-84
2021/12/18 04:59:15;;;;;;;35.33;19.57;;;;;;;0.48;100.00;99974.41;1719837;83;21842;-83
2021/12/18 05:02:32;;;;;;;33.58;18.95;;;;;;;0.51;100.00;99978.67;1750967;82;21315;-83
2021/12/18 05:05:29;;;;;;;36.80;22.00;;;;;;;0.50;100.00;99979.17;1719675;83;21193;-83
2021/12/18 05:08:34;;;;;;;40.90;23.75;;;;;;;0.51;100.00;99986.75;1749225;82;21244;-83
2021/12/18 05:11:40;;;;;;;44.13;20.17;;;;;;;0.51;100.00;99993.48;1719805;83;21331;-83
2021/12/18 05:14:45;;;;;;;29.50;15.83;;;;;;;0.52;100.00;99993.87;1750835;82;21291;-83
2021/12/18 05:17:51;;;;;;;23.45;13.83;;;;;;;0.54;100.00;99999.98;1719748;83;21778;-83
2021/12/18 05:20:58;;;;;;;18.20;11.20;;;;;;;0.57;100.00;100002.44;1750871;82;21322;-83
2021/12/18 05:24:02;;;;;;;20.32;11.43;;;;;;;0.59;100.00;100011.23;1719803;83;21884;-83
2021/12/18 05:27:09;;;;;;;19.48;10.00;;;;;;;0.61;100.00;100017.38;1750846;82;21838;-83
2021/12/18 05:30:16;;;;;;;20.62;10.50;;;;;;;0.64;100.00;100011.73;1719830;83;21913;-83
2021/12/18 05:33:22;;;;;;;17.02;9.10;;;;;;;0.69;100.00;100016.27;1750854;82;21224;-83
2021/12/18 05:36:34;;;;;;;18.85;8.95;;;;;;;0.75;100.00;100025.23;1751746;82;21164;-83
2021/12/18 05:39:38;;;;;;;11.28;6.90;;;;;;;0.82;100.00;100022.05;1734507;82;21842;-82
2021/12/18 05:42:43;;;;;;;11.35;7.28;;;;;;;0.86;100.00;100028.91;1750750;82;21244;-83
2021/12/18 05:45:49;;;;;;;13.93;7.50;;;;;;;0.90;100.00;100034.42;1751613;82;21152;-83
2021/12/18 05:48:54;;;;;;;11.28;6.47;;;;;;;0.94;100.00;100043.48;1734715;83;21285;-81
2021/12/18 05:51:53;;;;;;;10.20;5.70;;;;;;;0.98;99.86;100045.42;1734403;83;21312;-81
2021/12/18 05:54:58;;;;;;;13.68;6.60;;;;;;;1.01;99.02;100042.49;1706081;83;21177;-82
2021/12/18 05:58:04;;;;;;;8.75;5.83;;;;;;;1.03;98.35;100047.25;1728052;83;21335;-82
2021/12/18 06:01:09;;;;;;;11.35;5.97;;;;;;;1.09;97.93;100047.28;1714158;83;21801;-82
2021/12/18 06:04:15;;;;;;;12.28;6.03;;;;;;;1.14;96.87;100055.36;1675415;85;21834;-82
2021/12/18 06:07:32;;;;;;;10.10;6.00;;;;;;;1.17;95.40;100056.94;1723682;83;21809;-82
2021/12/18 06:10:37;;;;;;;8.98;4.60;;;;;;;1.17;94.35;100060.48;1713358;83;21283;-82
2021/12/18 06:13:42;;;;;;;12.65;5.90;;;;;;;1.17;93.37;100063.17;1714259;83;21194;-81
2021/12/18 06:16:47;;;;;;;7.72;4.80;;;;;;;1.16;92.83;100062.81;1694337;84;21735;-81
2021/12/18 06:19:53;;;;;;;8.03;5.47;;;;;;;1.12;91.89;100069.42;1698807;84;21327;-82
2021/12/18 06:22:58;;;;;;;9.53;5.47;;;;;;;1.10;91.40;100070.05;1698209;84;21404;-81
2021/12/18 06:26:03;;;;;;;10.10;6.12;;;;;;;1.09;91.43;100064.30;1699325;84;21225;-82
2021/12/18 06:29:08;;;;;;;12.18;5.58;;;;;;;1.09;91.58;100076.42;1699259;84;21939;-82
2021/12/18 06:32:15;;;;;;;11.40;6.10;;;;;;;1.10;91.82;100084.86;1693445;84;21972;-82
2021/12/18 06:35:20;;;;;;;10.48;6.05;;;;;;;1.13;92.11;100080.59;1729697;83;21911;-82
2021/12/18 06:38:26;;;;;;;11.83;6.35;;;;;;;1.17;92.33;100082.03;1729933;83;21335;-82
2021/12/18 06:41:32;;;;;;;9.83;6.40;;;;;;;1.20;92.36;100085.84;1730096;83;21314;-81
2021/12/18 06:44:38;;;;;;;14.33;6.12;;;;;;;1.23;92.43;100082.92;1731935;82;21306;-82
2021/12/18 06:47:44;;;;;;;10.75;6.47;;;;;;;1.25;92.59;100086.83;1726753;82;21268;-82
2021/12/18 06:50:50;;;;;;;13.50;5.95;;;;;;;1.27;92.48;100084.39;1718691;83;21188;-81
2021/12/18 06:53:56;;;;;;;16.50;8.48;;;;;;;1.31;92.45;100092.20;1719215;82;21347;-81
2021/12/18 06:57:02;;;;;;;16.30;6.92;;;;;;;1.33;92.42;100096.52;1718847;83;21319;-81
2021/12/18 07:00:08;;;;;;;12.70;6.72;;;;;;;1.37;92.51;100101.17;1726630;82;21267;-83
2021/12/18 07:03:14;;;;;;;11.03;6.80;;;;;;;1.41;92.59;100106.20;1728976;82;21336;-82
2021/12/18 07:06:19;;;;;;;15.78;7.37;;;;;;;1.43;92.59;100099.33;1739069;82;21825;-81
2021/12/18 07:09:23;;;;;;;13.30;7.78;;;;;;;1.45;92.45;100113.03;1695451;83;21649;-82
2021/12/18 07:12:28;;;;;;;18.45;8.05;;;;;;;1.44;92.46;100115.86;1671661;85;21320;-82
2021/12/18 07:15:33;;;;;;;20.35;9.25;;;;;;;1.43;92.48;100114.15;1669533;84;21296;-81
2021/12/18 07:18:40;;;;;;;18.07;9.90;;;;;;;1.41;92.55;100116.98;1693439;83;21302;-82
2021/12/18 07:21:45;;;;;;;20.17;9.93;;;;;;;1.39;92.84;100117.57;1713949;83;21346;-82
2021/12/18 07:24:50;;;;;;;19.57;9.80;;;;;;;1.39;93.15;100120.77;1721639;82;21303;-82
2021/12/18 07:27:56;;;;;;;20.15;10.15;;;;;;;1.38;93.70;100122.60;1727326;82;21916;-82
2021/12/18 07:31:01;;;;;;;18.67;10.88;;;;;;;1.41;94.07;100133.61;1712096;82;21323;-82
2021/12/18 07:34:06;;;;;;;15.85;10.38;;;;;;;1.43;94.43;100133.02;1727721;82;21956;-81
2021/12/18 07:37:12;;;;;;;19.37;10.15;;;;;;;1.46;94.79;100139.03;1737922;82;21743;-82
2021/12/18 07:40:18;;;;;;;20.92;10.78;;;;;;;1.46;95.14;100148.95;1725195;82;21271;-82
2021/12/18 07:43:24;;;;;;;18.10;10.70;;;;;;;1.47;95.58;100152.02;1766611;79;21302;-82
2021/12/18 07:46:31;;;;;;;16.45;9.53;;;;;;;1.50;95.70;100151.25;1763472;81;21550;-82
2021/12/18 07:49:36;;;;;;;23.40;12.03;;;;;;;1.53;95.73;100151.02;1775203;79;21706;-82
2021/12/18 07:52:42;;;;;;;19.65;10.60;;;;;;;1.50;95.11;100166.57;1766836;81;21627;-81
2021/12/18 07:55:47;;;;;;;20.92;10.28;;;;;;;1.50;95.06;100171.47;1760218;81;21864;-82
2021/12/18 07:58:52;;;;;;;19.67;11.20;;;;;;;1.50;95.02;100171.47;1758898;81;21718;-82
2021/12/18 08:01:58;;;;;;;16.17;10.20;;;;;;;1.48;94.68;100167.20;1754957;80;22241;-82
2021/12/18 08:05:04;;;;;;;19.17;11.20;;;;;;;1.48;94.70;100165.84;1770175;81;21281;-82
2021/12/18 08:08:10;;;;;;;23.10;12.20;;;;;;;1.49;95.03;100163.02;1763781;81;21308;-82
2021/12/18 08:11:16;;;;;;;22.45;12.85;;;;;;;1.53;95.15;100163.64;1767456;81;21354;-82
2021/12/18 08:14:21;;;;;;;19.55;11.63;;;;;;;1.53;94.95;100161.80;1766529;79;21307;-82
2021/12/18 08:17:27;;;;;;;15.83;9.73;;;;;;;1.57;95.02;100164.27;1773661;79;21307;-82
2021/12/18 08:20:32;;;;;;;34.90;14.75;;;;;;;1.58;94.70;100167.32;1762490;81;21303;-82
2021/12/18 08:23:37;;;;;;;18.05;10.95;;;;;;;1.55;94.82;100157.62;1754225;79;21872;-81
2021/12/18 08:26:42;;;;;;;17.52;10.50;;;;;;;1.58;95.10;100155.19;1789264;79;21327;-82
2021/12/18 08:29:47;;;;;;;22.13;12.90;;;;;;;1.61;95.13;100149.07;1803635;79;21286;-82
2021/12/18 08:32:52;;;;;;;22.15;13.10;;;;;;;1.60;95.03;100155.45;1782619;79;21295;-82
2021/12/18 08:35:58;;;;;;;19.25;12.00;;;;;;;1.62;95.32;100150.78;1769980;79;21284;-83
2021/12/18 08:39:02;;;;;;;22.37;13.20;;;;;;;1.66;95.31;100153.60;1765678;81;21271;-82
2021/12/18 08:42:08;;;;;;;21.45;11.20;;;;;;;1.68;95.47;100159.72;1765264;80;21758;-82
2021/12/18 08:45:14;;;;;;;15.58;9.85;;;;;;;1.69;95.69;100147.09;1782454;79;21224;-82
2021/12/18 08:48:21;;;;;;;18.55;10.80;;;;;;;1.75;95.90;100156.05;1757189;79;21142;-82
2021/12/18 08:51:26;;;;;;;15.70;10.05;;;;;;;1.77;95.76;100143.29;1760974;79;21273;-82
2021/12/18 08:54:31;;;;;;;18.12;10.58;;;;;;;1.75;95.33;100143.92;1755401;81;21802;-82
2021/12/18 08:57:38;;;;;;;20.95;11.75;;;;;;;1.75;94.96;100152.01;1750652;81;21703;-82
2021/12/18 09:00:43;;;;;;;15.68;10.10;;;;;;;1.73;95.59;100144.02;1762718;81;21836;-81
2021/12/18 09:03:48;;;;;;;14.75;10.43;;;;;;;1.74;95.96;100158.36;1754150;81;21153;-82
2021/12/18 09:06:54;;;;;;;17.10;10.65;;;;;;;1.76;95.85;100143.78;1751025;81;21189;-82
2021/12/18 09:10:00;;;;;;;14.60;9.83;;;;;;;1.77;95.67;100137.40;1753799;81;21134;-81
2021/12/18 09:13:06;;;;;;;14.70;9.13;;;;;;;1.81;95.63;100139.86;1735301;81;21185;-82
2021/12/18 09:16:11;;;;;;;22.35;12.43;;;;;;;1.85;95.38;100146.72;1708144;84;21802;-82
2021/12/18 09:19:16;;;;;;;17.50;10.65;;;;;;;1.86;95.15;100154.68;1696321;84;21302;-81
2021/12/18 09:22:22;;;;;;;17.60;10.23;;;;;;;1.89;94.87;100150.89;1724888;83;21949;-82
2021/12/18 09:25:27;;;;;;;15.00;9.65;;;;;;;1.89;93.78;100155.79;1731748;82;21294;-82
2021/12/18 09:28:32;;;;;;;19.00;11.35;;;;;;;1.88;93.66;100151.84;1786279;79;21278;-82
2021/12/18 09:31:38;;;;;;;15.58;9.50;;;;;;;1.85;93.01;100162.41;1768079;81;21845;-82
2021/12/18 09:34:43;;;;;;;14.43;9.13;;;;;;;1.82;92.33;100149.66;1789862;79;21176;-82
2021/12/18 09:37:51;;;;;;;12.33;8.28;;;;;;;1.79;92.10;100160.22;1764753;79;21344;-82
2021/12/18 09:40:57;;;;;;;15.63;8.98;;;;;;;1.78;92.27;100161.17;1790302;79;21204;-82
2021/12/18 09:44:03;;;;;;;13.35;8.05;;;;;;;1.81;92.28;100170.38;1785300;79;21695;-83
2021/12/18 09:47:11;;;;;;;19.27;7.50;;;;;;;1.82;92.21;100150.52;1799532;79;21315;-82
2021/12/18 09:50:17;;;;;;;14.93;7.40;;;;;;;1.83;91.79;100157.61;1788520;79;21630;-81
2021/12/18 09:53:22;;;;;;;15.70;7.58;;;;;;;1.81;91.06;100160.94;1771002;79;21806;-81
2021/12/18 09:56:28;;;;;;;10.72;7.65;;;;;;;1.84;91.12;100162.55;1779608;79;21248;-82
2021/12/18 09:59:35;;;;;;;10.60;7.05;;;;;;;1.87;90.95;100154.19;1773937;79;21169;-82
2021/12/18 10:02:40;;;;;;;12.50;7.28;;;;;;;1.87;90.15;100148.30;1788302;79;21116;-82
2021/12/18 10:05:45;;;;;;;9.80;6.37;;;;;;;1.90;89.50;100152.59;1794523;79;21251;-82
2021/12/18 10:08:53;;;;;;;10.28;6.60;;;;;;;1.93;89.12;100152.33;1775744;79;21193;-81
2021/12/18 10:12:03;;;;;;;12.90;7.35;;;;;;;1.96;89.01;100155.64;1781990;79;21291;-82
2021/12/18 10:15:23;;;;;;;11.00;6.60;;;;;;;2.00;88.76;100158.95;1779259;79;21267;-82
2021/12/18 10:18:28;;;;;;;9.83;6.53;;;;;;;2.04;87.86;100156.38;1769315;80;21272;-82
2021/12/18 10:21:37;;;;;;;21.02;9.20;;;;;;;2.07;86.97;100155.25;1764822;79;21392;-81
2021/12/18 10:24:44;;;;;;;8.53;5.08;;;;;;;2.08;86.98;100151.09;1791304;79;22083;-82
2021/12/18 10:27:50;;;;;;;12.18;7.83;;;;;;;2.10;85.85;100155.01;1788292;79;21232;-82
2021/12/18 10:31:00;;;;;;;13.45;8.08;;;;;;;2.12;86.16;100155.27;1795730;79;21260;-82
2021/12/18 10:34:10;;;;;;;16.82;7.28;;;;;;;2.16;85.79;100153.14;1784755;79;21762;-82
2021/12/18 10:37:20;;;;;;;10.25;5.50;;;;;;;2.20;85.12;100160.01;1771963;79;21287;-82
2021/12/18 10:40:26;;;;;;;10.48;6.53;;;;;;;2.22;85.14;100159.41;1784121;79;21259;-82
2021/12/18 10:43:31;;;;;;;10.10;6.70;;;;;;;2.26;85.32;100156.33;1787058;79;21923;-82
2021/12/18 10:46:38;;;;;;;9.60;6.12;;;;;;;2.27;84.77;100162.09;1772747;80;21299;-82
2021/12/18 10:49:48;;;;;;;9.43;6.80;;;;;;;2.30;84.65;100152.86;1781175;79;21142;-82
2021/12/18 10:52:53;;;;;;;11.55;7.30;;;;;;;2.33;85.32;100157.16;1762374;79;21184;-82
2021/12/18 10:56:04;;;;;;;14.25;6.92;;;;;;;2.37;85.31;100160.83;1784625;79;21272;-82
2021/12/18 10:59:10;;;;;;;8.93;6.40;;;;;;;2.35;83.82;100161.92;1780982;79;21275;-82
2021/12/18 11:02:21;;;;;;;12.05;7.17;;;;;;;2.32;83.21;100160.36;1796725;79;22261;-82
2021/12/18 11:05:27;;;;;;;12.03;7.08;;;;;;;2.28;82.10;100154.34;1783478;79;21303;-82
2021/12/18 11:08:32;;;;;;;12.47;6.37;;;;;;;2.24;81.96;100162.83;1789052;79;21276;-82
2021/12/18 11:15:11;;;;;;;12.53;6.72;;;;;;;2.19;82.06;100155.11;1760392;80;21788;-82
2021/12/18 11:18:16;;;;;;;25.05;10.18;;;;;;;2.18;81.81;100156.59;1786260;79;21726;-82
2021/12/18 11:21:22;;;;;;;17.17;8.00;;;;;;;2.19;81.98;100152.41;1792483;79;21251;-82
2021/12/18 11:24:45;;;;;;;12.53;6.55;;;;;;;2.19;81.76;100161.86;1795977;79;21276;-82
2021/12/18 11:27:52;;;;;;;16.90;6.80;;;;;;;2.19;81.50;100159.16;1793435;79;21153;-82
2021/12/18 11:30:57;;;;;;;16.50;7.05;;;;;;;2.15;80.61;100163.58;1778600;79;21266;-82
2021/12/18 11:34:02;;;;;;;13.25;6.58;;;;;;;2.12;80.36;100166.52;1785022;79;21764;-82
2021/12/18 11:37:06;;;;;;;15.10;7.70;;;;;;;2.08;80.40;100162.39;1778396;79;21280;-81
2021/12/18 11:40:13;;;;;;;13.98;6.70;;;;;;;2.05;81.04;100165.69;1716887;83;21291;-82
2021/12/18 11:43:36;;;;;;;9.45;5.95;;;;;;;2.02;80.61;100165.95;1688243;85;21326;-82
2021/12/18 11:46:45;;;;;;;11.75;5.90;;;;;;;2.02;81.15;100173.16;1674344;84;21208;-82
2021/12/18 11:49:51;;;;;;;10.40;5.28;;;;;;;1.99;81.27;100170.73;1707069;84;21177;-82
2021/12/18 11:53:14;;;;;;;8.70;5.20;;;;;;;1.98;80.66;100176.63;1678753;85;21334;-82
2021/12/18 11:56:19;;;;;;;8.73;4.95;;;;;;;1.98;80.44;100183.86;1707268;84;21295;-82
2021/12/18 11:59:45;;;;;;;7.60;4.45;;;;;;;1.95;80.08;100178.21;1707359;84;21821;-82
2021/12/18 12:03:02;;;;;;;6.75;4.25;;;;;;;1.94;80.20;100178.34;1678930;85;21350;-82
2021/12/18 12:06:09;;;;;;;8.28;5.30;;;;;;;1.91;80.63;100182.14;1707332;84;21280;-82
2021/12/18 12:09:38;;;;;;;9.50;6.15;;;;;;;1.92;80.95;100169.50;1707232;84;21280;-82
2021/12/18 12:12:59;;;;;;;13.85;7.15;;;;;;;1.93;80.94;100175.26;1678964;85;21318;-82
2021/12/18 12:16:07;;;;;;;11.35;7.03;;;;;;;1.93;81.06;100183.35;1706926;84;21604;-82
2021/12/18 12:19:13;;;;;;;17.80;6.15;;;;;;;1.94;81.40;100181.05;1707337;84;21308;-82
2021/12/18 12:22:41;;;;;;;11.25;6.08;;;;;;;1.93;81.64;100175.26;1678902;85;21220;-82
2021/12/18 12:25:51;;;;;;;13.85;7.58;;;;;;;1.92;81.66;100185.19;1692647;84;21312;-82
2021/12/18 12:28:59;;;;;;;10.15;6.60;;;;;;;1.90;82.04;100186.31;1707597;84;21276;-82
2021/12/18 12:32:12;;;;;;;13.85;7.05;;;;;;;1.90;82.60;100195.75;1678884;85;21862;-81
2021/12/18 12:35:19;;;;;;;11.75;7.33;;;;;;;1.88;82.79;100191.81;1707302;84;21307;-82
2021/12/18 12:38:32;;;;;;;11.43;7.78;;;;;;;1.85;83.08;100192.58;1707194;84;21310;-82
2021/12/18 12:41:51;;;;;;;21.65;11.68;;;;;;;1.84;83.59;100190.38;1678893;85;21327;-82
2021/12/18 12:45:09;;;;;;;17.17;9.65;;;;;;;1.85;83.86;100195.27;1690989;85;21332;-81
2021/12/18 12:48:10;;;;;;;19.07;11.25;;;;;;;1.85;84.20;100202.02;1661244;86;21421;-82
2021/12/18 12:51:14;;;;;;;28.55;14.80;;;;;;;1.82;84.39;100190.11;1662590;86;21832;-81
2021/12/18 12:54:33;;;;;;;28.25;15.93;;;;;;;1.78;84.66;100193.05;1662605;86;21740;-82
2021/12/18 12:57:47;;;;;;;34.45;18.67;;;;;;;1.77;85.00;100185.94;1655008;86;21505;-82
2021/12/18 13:00:53;;;;;;;33.28;16.23;;;;;;;1.79;85.43;100185.84;1662709;86;21292;-81
2021/12/18 13:03:59;;;;;;;27.30;14.28;;;;;;;1.77;86.09;100190.48;1662583;86;21267;-82
2021/12/18 13:07:13;;;;;;;31.17;15.25;;;;;;;1.72;86.62;100198.94;1662397;86;21214;-81
2021/12/18 13:10:18;;;;;;;22.80;14.38;;;;;;;1.69;86.97;100196.97;1662720;86;21338;-81
2021/12/18 13:13:26;;;;;;;28.20;15.48;;;;;;;1.66;87.64;100199.44;1662746;86;21254;-81
2021/12/18 13:16:32;;;;;;;27.00;13.50;;;;;;;1.62;88.00;100204.70;1662571;86;21326;-82
2021/12/18 13:19:37;;;;;;;21.33;13.13;;;;;;;1.59;88.52;100201.38;1662707;86;21886;-81
2021/12/18 13:22:43;;;;;;;25.23;13.75;;;;;;;1.58;89.01;100201.02;1662757;86;21313;-82
2021/12/18 13:26:00;;;;;;;28.17;14.03;;;;;;;1.54;89.38;100209.83;1662724;86;21306;-81
2021/12/18 13:29:25;;;;;;;24.98;14.25;;;;;;;1.50;89.62;100219.14;1662706;86;21179;-82
2021/12/18 13:32:30;;;;;;;20.25;11.75;;;;;;;1.47;89.94;100214.86;1662659;86;21725;-82
2021/12/18 13:35:37;;;;;;;17.98;11.65;;;;;;;1.46;90.43;100214.99;1662570;86;21908;-81
2021/12/18 13:38:44;;;;;;;19.90;12.28;;;;;;;1.44;90.91;100215.09;1662591;86;21310;-82
2021/12/18 13:42:14;;;;;;;17.60;11.22;;;;;;;1.40;91.27;100219.00;1662673;86;21827;-82
2021/12/18 13:45:18;;;;;;;18.75;11.50;;;;;;;1.38;91.55;100216.08;1662655;86;21310;-82
2021/12/18 13:48:23;;;;;;;18.90;10.68;;;;;;;1.36;92.01;100216.17;1700313;84;21794;-82
2021/12/18 13:51:28;;;;;;;19.52;9.78;;;;;;;1.34;92.31;100216.80;1711930;84;21268;-81
2021/12/18 13:54:33;;;;;;;12.45;8.40;;;;;;;1.34;92.62;100224.03;1711973;84;21789;-81
2021/12/18 13:57:39;;;;;;;11.88;8.20;;;;;;;1.33;93.08;100224.52;1711178;84;21298;-82
2021/12/18 14:01:10;;;;;;;13.45;8.43;;;;;;;1.32;93.38;100227.31;1711878;84;21164;-81
2021/12/18 14:04:24;;;;;;;12.78;9.45;;;;;;;1.29;93.61;100229.77;1711831;84;21295;-81
2021/12/18 14:07:30;;;;;;;15.23;8.93;;;;;;;1.25;93.79;100218.86;1711339;84;21343;-82
2021/12/18 14:10:34;;;;;;;12.25;8.63;;;;;;;1.21;94.18;100234.89;1711921;84;21280;-81
2021/12/18 14:13:55;;;;;;;11.68;8.13;;;;;;;1.15;94.81;100228.14;1711928;84;21294;-82
2021/12/18 14:17:01;;;;;;;15.63;9.28;;;;;;;1.12;95.44;100237.80;1711558;84;21299;-81
2021/12/18 14:20:18;;;;;;;18.98;12.63;;;;;;;1.09;96.16;100236.70;1711996;84;21169;-82
2021/12/18 14:23:23;;;;;;;25.65;12.68;;;;;;;1.04;96.74;100237.55;1711932;84;21204;-82
2021/12/18 14:26:31;;;;;;;26.52;14.63;;;;;;;1.02;97.08;100232.26;1711891;84;21288;-82
2021/12/18 14:29:40;;;;;;;24.02;14.13;;;;;;;1.02;97.36;100234.09;1711947;84;21718;-82
2021/12/18 14:32:47;;;;;;;28.60;16.07;;;;;;;1.00;97.39;100238.75;1711945;84;21312;-81
2021/12/18 14:36:00;;;;;;;28.23;14.70;;;;;;;0.99;97.42;100237.05;1711988;84;21343;-82
2021/12/18 14:39:06;;;;;;;26.93;14.40;;;;;;;1.00;97.22;100238.75;1711823;84;21149;-82
2021/12/18 14:42:17;;;;;;;27.65;13.62;;;;;;;0.96;96.56;100231.88;1711974;84;21255;-82
2021/12/18 14:45:30;;;;;;;31.90;15.98;;;;;;;0.91;95.92;100236.27;1711958;84;21335;-81
2021/12/18 14:48:37;;;;;;;29.60;14.38;;;;;;;0.86;96.09;100239.80;1711758;83;21307;-81
2021/12/18 14:51:43;;;;;;;29.12;12.80;;;;;;;0.83;96.00;100247.25;1711927;84;21315;-82
2021/12/18 14:55:02;;;;;;;25.68;12.88;;;;;;;0.79;95.55;100241.72;1711906;84;21303;-82
2021/12/18 14:58:13;;;;;;;18.17;10.88;;;;;;;0.76;95.03;100247.72;1711973;84;21758;-82
2021/12/18 15:01:23;;;;;;;20.95;11.83;;;;;;;0.76;94.70;100246.38;1711869;84;21706;-81
2021/12/18 15:04:29;;;;;;;22.02;11.28;;;;;;;0.78;94.22;100250.77;1711892;84;21291;-82
2021/12/18 15:07:34;;;;;;;21.40;11.90;;;;;;;0.79;93.99;100254.69;1711838;84;21326;-81
2021/12/18 15:11:05;;;;;;;25.55;13.45;;;;;;;0.78;93.87;100254.81;1711895;84;21212;-82